createdAt,value
2023-07-27T00:01:51.862Z,11.26
2023-07-27T00:04:19.804Z,11.17
2023-07-27T00:06:47.908Z,11.14
2023-07-27T00:09:14.428Z,11.05
2023-07-27T00:11:41.823Z,10.98
2023-07-27T00:14:08.777Z,10.94
2023-07-27T00:16:35.568Z,10.92
2023-07-27T00:19:02.637Z,10.94
2023-07-27T00:21:29.592Z,10.97
2023-07-27T00:23:56.485Z,10.97
2023-07-27T00:26:23.430Z,10.99
2023-07-27T00:28:50.663Z,11.00
2023-07-27T00:31:17.145Z,11.02
2023-07-27T00:33:43.746Z,11.05
2023-07-27T00:36:10.394Z,11.06
2023-07-27T00:38:37.564Z,11.07
2023-07-27T00:41:05.481Z,11.07
2023-07-27T00:43:32.423Z,11.06
2023-07-27T00:45:59.193Z,11.03
2023-07-27T00:48:26.342Z,11.01
2023-07-27T00:50:55.013Z,10.99
2023-07-27T00:53:21.862Z,10.98
2023-07-27T00:55:48.934Z,10.95
2023-07-27T00:58:15.678Z,10.94
2023-07-27T01:05:00.193Z,10.88
2023-07-27T01:12:56.583Z,10.76
2023-07-27T01:17:06.726Z,10.66
2023-07-27T01:20:47.487Z,10.61
2023-07-27T01:23:46.669Z,10.58
2023-07-27T01:26:34.100Z,10.54
2023-07-27T01:29:14.914Z,10.51
2023-07-27T01:31:44.126Z,10.48
2023-07-27T01:34:28.090Z,10.46
2023-07-27T01:37:05.737Z,10.42
2023-07-27T01:39:36.884Z,10.37
2023-07-27T01:42:09.804Z,10.35
2023-07-27T01:44:37.253Z,10.33
2023-07-27T01:47:05.119Z,10.29
2023-07-27T01:49:33.679Z,10.24
2023-07-27T01:52:02.234Z,10.20
2023-07-27T01:54:29.020Z,10.16
2023-07-27T01:56:56.988Z,10.12
2023-07-27T01:59:25.296Z,10.07
2023-07-27T02:01:52.859Z,10.05
2023-07-27T02:04:19.619Z,10.03
2023-07-27T02:06:52.631Z,10.01
2023-07-27T02:09:19.471Z,10.00
2023-07-27T02:11:49.890Z,9.98
2023-07-27T02:14:35.047Z,9.97
2023-07-27T02:17:10.637Z,9.95
2023-07-27T02:19:41.603Z,9.92
2023-07-27T02:22:10.531Z,9.88
2023-07-27T02:24:37.779Z,9.87
2023-07-27T02:27:05.554Z,9.86
2023-07-27T02:29:31.884Z,9.84
2023-07-27T02:31:58.791Z,9.82
2023-07-27T02:34:25.205Z,9.79
2023-07-27T02:36:52.056Z,9.77
2023-07-27T02:39:19.287Z,9.76
2023-07-27T02:41:45.700Z,9.73
2023-07-27T02:44:12.114Z,9.71
2023-07-27T02:46:38.739Z,9.69
2023-07-27T02:49:05.201Z,9.66
2023-07-27T02:51:32.263Z,9.63
2023-07-27T02:53:58.801Z,9.59
2023-07-27T02:56:25.314Z,9.56
2023-07-27T02:58:51.804Z,9.52
2023-07-27T03:01:19.360Z,9.48
2023-07-27T03:03:45.852Z,9.43
2023-07-27T03:06:12.409Z,9.39
2023-07-27T03:08:39.346Z,9.34
2023-07-27T03:11:06.163Z,9.31
2023-07-27T03:13:33.797Z,9.28
2023-07-27T03:16:03.383Z,9.24
2023-07-27T03:18:30.102Z,9.21
2023-07-27T03:20:56.855Z,9.17
2023-07-27T03:23:23.474Z,9.13
2023-07-27T03:25:49.978Z,9.09
2023-07-27T03:28:16.652Z,9.07
2023-07-27T03:30:43.924Z,9.04
2023-07-27T03:33:10.408Z,9.02
2023-07-27T03:35:37.401Z,8.99
2023-07-27T03:38:04.448Z,8.97
2023-07-27T03:40:30.825Z,8.95
2023-07-27T03:42:57.442Z,8.92
2023-07-27T03:45:24.036Z,8.89
2023-07-27T03:47:50.848Z,8.87
2023-07-27T03:50:17.721Z,8.84
2023-07-27T03:52:44.082Z,8.82
2023-07-27T03:55:10.643Z,8.81
2023-07-27T03:57:38.013Z,8.79
2023-07-27T04:00:06.227Z,8.80
2023-07-27T04:02:32.925Z,8.81
2023-07-27T04:04:59.344Z,8.81
2023-07-27T04:07:25.771Z,8.81
2023-07-27T04:09:52.449Z,8.81
2023-07-27T04:12:19.322Z,8.83
2023-07-27T04:14:45.750Z,8.85
2023-07-27T04:17:12.235Z,8.87
2023-07-27T04:19:39.350Z,8.91
2023-07-27T04:22:05.976Z,8.96
2023-07-27T04:24:32.544Z,9.00
2023-07-27T04:26:58.771Z,9.02
2023-07-27T04:29:25.281Z,9.05
2023-07-27T04:31:52.053Z,9.11
2023-07-27T04:34:18.867Z,9.16
2023-07-27T04:36:48.425Z,9.21
2023-07-27T04:39:15.892Z,9.26
2023-07-27T04:41:42.326Z,9.32
2023-07-27T04:44:08.940Z,9.35
2023-07-27T04:46:35.793Z,9.40
2023-07-27T04:49:02.646Z,9.47
2023-07-27T04:51:29.616Z,9.52
2023-07-27T04:53:55.992Z,9.58
2023-07-27T04:56:22.814Z,9.63
2023-07-27T04:58:49.489Z,9.69
2023-07-27T05:01:15.959Z,9.74
2023-07-27T05:03:42.529Z,9.80
2023-07-27T05:06:08.958Z,9.85
2023-07-27T05:08:35.451Z,9.92
2023-07-27T05:11:07.141Z,9.99
2023-07-27T05:13:34.874Z,10.05
2023-07-27T05:16:01.975Z,10.11
2023-07-27T05:18:29.074Z,10.15
2023-07-27T05:20:56.560Z,10.21
2023-07-27T05:23:23.550Z,10.26
2023-07-27T05:28:41.842Z,10.39
2023-07-27T05:31:09.099Z,10.45
2023-07-27T05:33:35.550Z,10.50
2023-07-27T05:36:02.234Z,10.57
2023-07-27T05:38:31.374Z,10.65
2023-07-27T05:41:02.009Z,10.74
2023-07-27T05:43:28.884Z,10.81
2023-07-27T05:45:55.666Z,10.87
2023-07-27T05:48:31.534Z,10.96
2023-07-27T05:50:58.181Z,11.07
2023-07-27T05:53:24.465Z,11.15
2023-07-27T05:55:51.118Z,11.22
2023-07-27T05:58:24.794Z,11.28
2023-07-27T06:00:52.196Z,11.33
2023-07-27T06:03:19.771Z,11.41
2023-07-27T06:05:46.266Z,11.46
2023-07-27T06:08:12.998Z,11.53
2023-07-27T06:10:39.973Z,11.61
2023-07-27T06:13:07.226Z,11.73
2023-07-27T06:15:33.848Z,11.85
2023-07-27T06:18:00.606Z,12.00
2023-07-27T06:20:27.066Z,12.13
2023-07-27T06:22:53.313Z,12.24
2023-07-27T06:25:19.761Z,12.33
2023-07-27T06:27:46.097Z,12.40
2023-07-27T06:30:13.837Z,12.49
2023-07-27T06:32:40.554Z,12.60
2023-07-27T06:35:07.623Z,12.72
2023-07-27T06:37:34.385Z,12.85
2023-07-27T06:40:00.964Z,12.97
2023-07-27T06:42:27.339Z,13.09
2023-07-27T06:44:53.915Z,13.17
2023-07-27T06:47:20.392Z,13.21
2023-07-27T06:49:46.784Z,13.28
2023-07-27T06:52:13.753Z,13.31
2023-07-27T06:54:40.610Z,13.37
2023-07-27T06:57:10.677Z,13.46
2023-07-27T06:59:37.854Z,13.51
2023-07-27T07:02:04.934Z,13.50
2023-07-27T07:04:32.428Z,13.51
2023-07-27T07:06:58.980Z,13.59
2023-07-27T07:09:25.387Z,13.66
2023-07-27T07:11:51.983Z,13.76
2023-07-27T07:14:18.551Z,13.87
2023-07-27T07:16:45.080Z,13.94
2023-07-27T07:19:11.616Z,14.05
2023-07-27T07:21:37.831Z,14.15
2023-07-27T07:24:04.992Z,14.23
2023-07-27T07:26:32.486Z,14.36
2023-07-27T07:28:59.237Z,14.49
2023-07-27T07:31:25.711Z,14.58
2023-07-27T07:33:52.380Z,14.68
2023-07-27T07:36:19.913Z,14.74
2023-07-27T07:38:46.783Z,14.77
2023-07-27T07:41:14.558Z,14.82
2023-07-27T07:43:40.870Z,14.81
2023-07-27T07:46:14.087Z,14.88
2023-07-27T07:48:40.785Z,15.00
2023-07-27T07:51:11.731Z,15.08
2023-07-27T07:53:38.664Z,15.15
2023-07-27T07:56:05.529Z,15.23
2023-07-27T07:58:32.289Z,15.35
2023-07-27T08:01:01.380Z,15.46
2023-07-27T08:03:27.958Z,15.53
2023-07-27T08:05:54.468Z,15.58
2023-07-27T08:08:21.546Z,15.64
2023-07-27T08:10:48.471Z,15.71
2023-07-27T08:13:14.972Z,15.86
2023-07-27T08:15:51.159Z,16.03
2023-07-27T08:18:17.661Z,16.16
2023-07-27T08:20:44.010Z,16.24
2023-07-27T08:23:10.544Z,16.31
2023-07-27T08:25:38.285Z,16.26
2023-07-27T08:28:06.271Z,16.27
2023-07-27T08:30:35.611Z,16.39
2023-07-27T08:33:01.932Z,16.55
2023-07-27T08:35:28.475Z,16.63
2023-07-27T08:37:55.351Z,16.65
2023-07-27T08:40:22.027Z,16.76
2023-07-27T08:42:50.060Z,16.89
2023-07-27T08:45:21.788Z,17.10
2023-07-27T08:47:54.066Z,17.25
2023-07-27T08:50:21.014Z,17.39
2023-07-27T08:52:47.948Z,17.45
2023-07-27T08:55:14.548Z,17.49
2023-07-27T08:57:40.867Z,17.57
2023-07-27T09:00:10.822Z,17.59
2023-07-27T09:02:39.864Z,17.55
2023-07-27T09:05:07.374Z,17.64
2023-07-27T09:07:33.894Z,17.84
2023-07-27T09:10:06.196Z,18.07
2023-07-27T09:12:33.939Z,18.17
2023-07-27T09:15:00.664Z,18.28
2023-07-27T09:17:27.374Z,18.51
2023-07-27T09:19:54.094Z,18.65
2023-07-27T09:22:20.547Z,18.82
2023-07-27T09:24:47.259Z,19.10
2023-07-27T09:27:16.546Z,19.39
2023-07-27T09:29:43.481Z,19.69
2023-07-27T09:32:11.152Z,19.80
2023-07-27T09:34:37.473Z,19.66
2023-07-27T09:37:06.576Z,19.49
2023-07-27T09:39:33.931Z,19.60
2023-07-27T09:42:00.547Z,19.65
2023-07-27T09:44:26.970Z,19.48
2023-07-27T09:46:53.453Z,19.30
2023-07-27T09:49:20.723Z,19.27
2023-07-27T09:51:49.951Z,19.28
2023-07-27T09:54:18.721Z,19.40
2023-07-27T09:56:46.488Z,19.40
2023-07-27T09:59:14.933Z,19.58
2023-07-27T10:01:42.555Z,19.68
2023-07-27T10:04:09.083Z,19.87
2023-07-27T10:06:36.756Z,20.02
2023-07-27T10:09:18.866Z,20.01
2023-07-27T10:12:02.481Z,19.90
2023-07-27T10:15:13.319Z,19.89
2023-07-27T10:17:50.252Z,19.99
2023-07-27T10:20:31.407Z,19.84
2023-07-27T10:23:21.336Z,19.79
2023-07-27T10:25:53.910Z,19.98
2023-07-27T10:28:44.680Z,20.18
2023-07-27T10:31:29.953Z,20.20
2023-07-27T10:34:24.902Z,20.26
2023-07-27T10:37:00.378Z,20.46
2023-07-27T10:39:44.058Z,20.36
2023-07-27T10:42:15.358Z,20.00
2023-07-27T10:44:48.293Z,19.93
2023-07-27T10:47:25.803Z,19.90
2023-07-27T10:50:02.515Z,19.87
2023-07-27T10:52:33.519Z,19.88
2023-07-27T10:55:00.925Z,20.14
2023-07-27T10:57:29.349Z,20.33
2023-07-27T10:59:56.186Z,20.38
2023-07-27T11:02:31.251Z,20.27
2023-07-27T11:05:04.404Z,20.11
2023-07-27T11:07:33.898Z,20.18
2023-07-27T11:10:07.615Z,20.45
2023-07-27T11:12:50.568Z,20.50
2023-07-27T11:15:36.199Z,20.46
2023-07-27T11:18:03.656Z,20.35
2023-07-27T11:20:30.245Z,20.19
2023-07-27T11:22:57.984Z,20.17
2023-07-27T11:25:26.581Z,20.34
2023-07-27T11:27:54.698Z,20.52
2023-07-27T11:30:22.758Z,20.61
2023-07-27T11:33:03.395Z,20.54
2023-07-27T11:35:30.874Z,20.45
2023-07-27T11:37:58.464Z,20.53
2023-07-27T11:40:32.555Z,20.55
2023-07-27T11:43:04.031Z,20.37
2023-07-27T11:45:32.415Z,20.22
2023-07-27T11:47:59.856Z,20.03
2023-07-27T11:50:30.072Z,19.79
2023-07-27T11:53:03.939Z,19.61
2023-07-27T11:55:36.813Z,19.54
2023-07-27T11:58:11.790Z,19.44
2023-07-27T12:00:38.604Z,19.43
2023-07-27T12:03:16.310Z,19.49
2023-07-27T12:06:08.276Z,19.75
2023-07-27T12:11:40.875Z,20.14
2023-07-27T12:17:01.225Z,20.20
2023-07-27T12:21:44.106Z,19.95
2023-07-27T12:34:11.896Z,19.89
2023-07-27T12:36:39.410Z,19.92
2023-07-27T12:39:06.066Z,19.93
2023-07-27T12:41:33.154Z,19.94
2023-07-27T12:44:01.620Z,20.01
2023-07-27T12:46:28.378Z,20.17
2023-07-27T12:48:55.013Z,20.44
2023-07-27T12:51:25.389Z,20.61
2023-07-27T12:53:51.919Z,20.59
2023-07-27T12:56:19.071Z,20.51
2023-07-27T12:58:46.476Z,20.43
2023-07-27T13:01:13.196Z,20.33
2023-07-27T13:03:40.786Z,20.22
2023-07-27T13:06:08.091Z,20.09
2023-07-27T13:08:34.818Z,19.96
2023-07-27T13:11:01.345Z,20.02
2023-07-27T13:13:28.401Z,20.28
2023-07-27T13:15:55.153Z,20.59
2023-07-27T13:18:21.611Z,20.88
2023-07-27T13:20:49.304Z,20.83
2023-07-27T13:23:16.338Z,20.66
2023-07-27T13:25:42.884Z,20.51
2023-07-27T13:28:10.148Z,20.45
2023-07-27T13:30:37.087Z,20.34
2023-07-27T13:33:03.778Z,20.23
2023-07-27T13:35:30.954Z,20.19
2023-07-27T13:37:57.649Z,20.14
2023-07-27T13:40:24.192Z,20.03
2023-07-27T13:42:51.127Z,20.09
2023-07-27T13:45:17.594Z,20.12
2023-07-27T13:47:53.865Z,20.10
2023-07-27T13:50:29.330Z,20.22
2023-07-27T13:52:55.823Z,20.37
2023-07-27T13:55:24.905Z,20.72
2023-07-27T13:57:51.561Z,21.06
2023-07-27T14:00:18.647Z,21.42
2023-07-27T14:02:45.720Z,21.50
2023-07-27T14:05:14.552Z,21.53
2023-07-27T14:07:41.089Z,21.77
2023-07-27T14:10:09.285Z,22.05
2023-07-27T14:12:36.335Z,22.27
2023-07-27T14:15:03.113Z,22.44
2023-07-27T14:17:29.596Z,22.48
2023-07-27T14:19:58.426Z,22.49
2023-07-27T14:22:25.381Z,22.56
2023-07-27T14:24:52.963Z,22.69
2023-07-27T14:27:21.929Z,22.72
2023-07-27T14:29:48.667Z,22.76
2023-07-27T14:32:14.975Z,22.85
2023-07-27T14:34:41.959Z,22.83
2023-07-27T14:37:08.523Z,22.62
2023-07-27T14:42:14.202Z,22.21
2023-07-27T14:44:40.592Z,22.03
2023-07-27T14:47:09.321Z,21.92
2023-07-27T14:52:05.676Z,21.64
2023-07-27T14:54:32.621Z,21.77
2023-07-27T14:57:02.390Z,21.94
2023-07-27T14:59:29.863Z,21.98
2023-07-27T15:01:57.743Z,22.13
2023-07-27T15:06:54.373Z,22.67
2023-07-27T15:09:31.085Z,22.85
2023-07-27T15:11:58.092Z,22.70
2023-07-27T15:14:24.686Z,22.55
2023-07-27T15:16:51.234Z,22.49
2023-07-27T15:19:18.079Z,22.42
2023-07-27T15:21:44.751Z,22.34
2023-07-27T15:24:12.823Z,22.16
2023-07-27T15:26:39.858Z,22.02
2023-07-27T15:29:07.237Z,22.17
2023-07-27T15:31:34.018Z,22.34
2023-07-27T15:34:00.780Z,22.42
2023-07-27T15:36:29.328Z,22.53
2023-07-27T15:38:56.229Z,22.69
2023-07-27T15:41:22.770Z,22.78
2023-07-27T15:43:49.208Z,22.83
2023-07-27T15:46:16.271Z,22.77
2023-07-27T15:48:43.578Z,22.66
2023-07-27T15:51:10.219Z,22.63
2023-07-27T15:53:39.323Z,22.57
2023-07-27T15:56:06.455Z,22.56
2023-07-27T15:58:33.014Z,22.53
2023-07-27T16:01:01.433Z,22.51
2023-07-27T16:03:28.833Z,22.49
2023-07-27T16:05:55.508Z,22.35
2023-07-27T16:08:23.831Z,22.17
2023-07-27T16:10:50.786Z,22.02
2023-07-27T16:13:17.329Z,21.90
2023-07-27T16:15:44.479Z,21.83
2023-07-27T16:18:11.167Z,21.72
2023-07-27T16:20:44.214Z,21.67
2023-07-27T16:23:12.985Z,21.51
2023-07-27T16:25:39.902Z,21.42
2023-07-27T16:28:06.586Z,21.32
2023-07-27T16:30:35.227Z,21.22
2023-07-27T16:33:03.732Z,21.19
2023-07-27T16:35:32.369Z,21.21
2023-07-27T16:37:59.574Z,21.23
2023-07-27T16:40:26.473Z,21.17
2023-07-27T16:42:53.041Z,20.99
2023-07-27T16:45:23.290Z,20.92
2023-07-27T16:47:49.897Z,20.91
2023-07-27T16:50:16.443Z,20.85
2023-07-27T16:52:44.441Z,20.77
2023-07-27T16:55:10.907Z,20.79
2023-07-27T16:57:37.287Z,20.80
2023-07-27T17:00:04.540Z,20.76
2023-07-27T17:02:32.077Z,20.74
2023-07-27T17:04:58.811Z,20.70
2023-07-27T17:07:26.736Z,20.62
2023-07-27T17:09:53.370Z,20.54
2023-07-27T17:12:19.690Z,20.41
2023-07-27T17:14:47.395Z,20.33
2023-07-27T17:17:14.750Z,20.19
2023-07-27T17:19:41.636Z,20.09
2023-07-27T17:22:08.390Z,19.99
2023-07-27T17:24:35.201Z,19.86
2023-07-27T17:27:01.962Z,19.75
2023-07-27T17:29:28.801Z,19.61
2023-07-27T17:31:55.183Z,19.53
2023-07-27T17:34:24.173Z,19.49
2023-07-27T17:36:50.996Z,19.44
2023-07-27T17:39:17.621Z,19.42
2023-07-27T17:41:44.261Z,19.37
2023-07-27T17:44:11.136Z,19.31
2023-07-27T17:46:37.782Z,19.25
2023-07-27T17:49:04.846Z,19.17
2023-07-27T17:51:32.920Z,19.09
2023-07-27T17:53:59.851Z,19.00
2023-07-27T17:56:26.358Z,18.87
2023-07-27T17:58:53.883Z,18.74
2023-07-27T18:01:20.801Z,18.62
2023-07-27T18:03:50.801Z,18.51
2023-07-27T18:06:17.513Z,18.38
2023-07-27T18:08:44.180Z,18.30
2023-07-27T18:11:14.590Z,18.18
2023-07-27T18:13:42.737Z,18.06
2023-07-27T18:16:11.702Z,17.98
2023-07-27T18:18:39.239Z,17.90
2023-07-27T18:21:14.495Z,17.80
2023-07-27T18:23:42.586Z,17.71
2023-07-27T18:26:17.301Z,17.62
2023-07-27T18:28:44.113Z,17.54
2023-07-27T18:31:10.785Z,17.44
2023-07-27T18:33:38.350Z,17.33
2023-07-27T18:36:17.153Z,17.26
2023-07-27T18:38:46.039Z,17.22
2023-07-27T18:41:17.471Z,17.18
2023-07-27T18:43:44.287Z,17.10
2023-07-27T18:46:16.398Z,17.02
2023-07-27T18:48:43.066Z,16.97
2023-07-27T18:51:09.707Z,16.89
2023-07-27T18:53:37.096Z,16.78
2023-07-27T18:56:04.128Z,16.71
2023-07-27T18:58:30.916Z,16.71
2023-07-27T19:00:58.511Z,16.69
2023-07-27T19:03:25.771Z,16.61
2023-07-27T19:05:52.399Z,16.53
2023-07-27T19:08:21.795Z,16.52
2023-07-27T19:11:00.904Z,16.49
2023-07-27T19:13:27.721Z,16.45
2023-07-27T19:15:54.412Z,16.37
2023-07-27T19:18:21.048Z,16.28
2023-07-27T19:20:48.473Z,16.20
2023-07-27T19:23:15.018Z,16.15
2023-07-27T19:25:43.431Z,16.13
2023-07-27T19:28:11.778Z,16.10
2023-07-27T19:30:39.582Z,16.05
2023-07-27T19:33:10.581Z,15.97
2023-07-27T19:35:38.587Z,15.93
2023-07-27T19:38:06.454Z,15.88
2023-07-27T19:40:33.329Z,15.83
2023-07-27T19:43:00.277Z,15.79
2023-07-27T19:45:27.121Z,15.74
2023-07-27T19:47:53.955Z,15.69
2023-07-27T19:50:21.206Z,15.68
2023-07-27T19:52:47.862Z,15.61
2023-07-27T19:55:14.298Z,15.53
2023-07-27T19:57:41.196Z,15.47
2023-07-27T20:00:10.609Z,15.40
2023-07-27T20:02:37.348Z,15.37
2023-07-27T20:05:06.907Z,15.31
2023-07-27T20:07:33.260Z,15.27
2023-07-27T20:10:00.878Z,15.16
2023-07-27T20:12:29.516Z,15.07
2023-07-27T20:14:56.179Z,15.02
2023-07-27T20:17:23.352Z,14.99
2023-07-27T20:19:50.505Z,14.99
2023-07-27T20:22:19.853Z,14.95
2023-07-27T20:24:50.504Z,14.88
2023-07-27T20:27:17.324Z,14.83
2023-07-27T20:29:43.831Z,14.81
2023-07-27T20:32:10.452Z,14.86
2023-07-27T20:34:37.287Z,14.92
2023-07-27T20:37:04.074Z,14.92
2023-07-27T20:39:30.899Z,14.89
2023-07-27T20:42:00.188Z,14.87
2023-07-27T20:44:27.088Z,14.87
2023-07-27T20:46:53.803Z,14.91
2023-07-27T20:49:20.403Z,14.92
2023-07-27T20:51:48.062Z,14.89
2023-07-27T20:54:14.852Z,14.83
2023-07-27T20:56:43.990Z,14.78
2023-07-27T20:59:11.175Z,14.77
2023-07-27T21:01:38.151Z,14.76
2023-07-27T21:04:07.014Z,14.74
2023-07-27T21:06:35.957Z,14.73
2023-07-27T21:09:03.125Z,14.70
2023-07-27T21:11:30.458Z,14.67
2023-07-27T21:13:57.218Z,14.63
2023-07-27T21:16:24.251Z,14.56
2023-07-27T21:18:54.209Z,14.51
2023-07-27T21:21:21.233Z,14.50
2023-07-27T21:23:50.776Z,14.48
2023-07-27T21:26:18.192Z,14.44
2023-07-27T21:28:45.582Z,14.42
2023-07-27T21:31:13.038Z,14.36
2023-07-27T21:33:40.255Z,14.32
2023-07-27T21:36:07.555Z,14.28
2023-07-27T21:38:34.740Z,14.26
2023-07-27T21:41:02.446Z,14.22
2023-07-27T21:43:29.595Z,14.18
2023-07-27T21:45:57.201Z,14.15
2023-07-27T21:48:24.646Z,14.09
2023-07-27T21:50:52.716Z,14.06
2023-07-27T21:53:19.702Z,14.04
2023-07-27T21:55:47.758Z,14.02
2023-07-27T21:58:17.274Z,13.99
2023-07-27T22:00:43.667Z,13.98
2023-07-27T22:03:12.456Z,14.00
2023-07-27T22:05:39.248Z,14.01
2023-07-27T22:08:05.844Z,14.00
2023-07-27T22:10:33.611Z,13.98
2023-07-27T22:13:00.107Z,13.96
2023-07-27T22:15:26.444Z,13.97
2023-07-27T22:17:54.246Z,13.96
2023-07-27T22:20:20.961Z,13.97
2023-07-27T22:22:47.537Z,13.96
2023-07-27T22:25:15.015Z,13.95
2023-07-27T22:27:41.978Z,13.95
2023-07-27T22:30:08.888Z,13.97
2023-07-27T22:32:36.276Z,13.98
2023-07-27T22:35:03.556Z,13.99
2023-07-27T22:37:30.106Z,13.98
2023-07-27T22:39:57.331Z,13.98
2023-07-27T22:42:26.782Z,13.96
2023-07-27T22:44:53.234Z,13.95
2023-07-27T22:47:23.132Z,13.93
2023-07-27T22:49:50.403Z,13.91
2023-07-27T22:52:16.947Z,13.89
2023-07-27T22:54:44.348Z,13.88
2023-07-27T22:57:11.316Z,13.88
2023-07-27T22:59:37.796Z,13.89
2023-07-27T23:02:04.710Z,13.88
2023-07-27T23:04:31.482Z,13.86
2023-07-27T23:06:58.074Z,13.87
2023-07-27T23:09:25.424Z,13.88
2023-07-27T23:11:51.785Z,13.89
2023-07-27T23:14:18.249Z,13.90
2023-07-27T23:16:44.900Z,13.91
2023-07-27T23:19:11.429Z,13.90
2023-07-27T23:21:37.849Z,13.90
2023-07-27T23:24:05.047Z,13.93
2023-07-27T23:26:31.416Z,13.95
2023-07-27T23:28:58.948Z,13.97
2023-07-27T23:31:26.144Z,13.98
2023-07-27T23:33:52.723Z,13.97
2023-07-27T23:36:20.105Z,13.96
2023-07-27T23:38:47.630Z,13.95
2023-07-27T23:41:17.293Z,13.94
2023-07-27T23:43:43.954Z,13.92
2023-07-27T23:46:11.046Z,13.89
2023-07-27T23:48:37.541Z,13.85
2023-07-27T23:51:04.212Z,13.84
2023-07-27T23:53:31.399Z,13.81
2023-07-27T23:56:00.056Z,13.81
2023-07-27T23:58:26.421Z,13.84
